sensor_id;sensor_type;location;lat;lon;timestamp;temperature;humidity
22923;DHT22;11627;51.322;22.816;2022-08-05T00:01:14;20.10;99.90
22923;DHT22;11627;51.322;22.816;2022-08-05T00:03:43;20.00;99.90
22923;DHT22;11627;51.322;22.816;2022-08-05T00:06:09;20.00;99.90
22923;DHT22;11627;51.322;22.816;2022-08-05T00:08:36;21.00;99.90
22923;DHT22;11627;51.322;22.816;2022-08-05T00:11:05;19.40;99.90
22923;DHT22;11627;51.322;22.816;2022-08-05T00:13:32;19.70;99.90
22923;DHT22;11627;51.322;22.816;2022-08-05T00:18:25;19.70;99.90
22923;DHT22;11627;51.322;22.816;2022-08-05T00:20:51;19.40;99.90
22923;DHT22;11627;51.322;22.816;2022-08-05T00:23:18;19.50;99.90
22923;DHT22;11627;51.322;22.816;2022-08-05T00:25:43;19.60;99.90
22923;DHT22;11627;51.322;22.816;2022-08-05T00:28:09;19.50;1.00
22923;DHT22;11627;51.322;22.816;2022-08-05T00:30:35;19.50;1.00
22923;DHT22;11627;51.322;22.816;2022-08-05T00:33:00;19.60;1.00
22923;DHT22;11627;51.322;22.816;2022-08-05T00:35:26;19.30;1.00
22923;DHT22;11627;51.322;22.816;2022-08-05T00:40:19;19.30;99.90
22923;DHT22;11627;51.322;22.816;2022-08-05T00:42:46;19.50;99.90
22923;DHT22;11627;51.322;22.816;2022-08-05T00:45:12;19.10;1.00
22923;DHT22;11627;51.322;22.816;2022-08-05T00:47:38;19.20;1.00
22923;DHT22;11627;51.322;22.816;2022-08-05T00:50:05;19.70;1.00
22923;DHT22;11627;51.322;22.816;2022-08-05T00:54:57;19.30;1.00
22923;DHT22;11627;51.322;22.816;2022-08-05T00:57:23;19.30;1.00
22923;DHT22;11627;51.322;22.816;2022-08-05T00:59:49;19.30;1.00
22923;DHT22;11627;51.322;22.816;2022-08-05T01:02:15;19.20;1.00
22923;DHT22;11627;51.322;22.816;2022-08-05T01:04:40;19.20;1.00
22923;DHT22;11627;51.322;22.816;2022-08-05T01:07:07;19.30;1.00
22923;DHT22;11627;51.322;22.816;2022-08-05T01:09:33;18.90;1.00
22923;DHT22;11627;51.322;22.816;2022-08-05T01:12:03;19.10;1.00
22923;DHT22;11627;51.322;22.816;2022-08-05T01:14:47;19.00;1.00
22923;DHT22;11627;51.322;22.816;2022-08-05T01:17:26;19.00;1.00
22923;DHT22;11627;51.322;22.816;2022-08-05T01:20:11;19.00;1.00
22923;DHT22;11627;51.322;22.816;2022-08-05T01:23:07;18.80;1.00
22923;DHT22;11627;51.322;22.816;2022-08-05T01:25:55;18.50;1.00
22923;DHT22;11627;51.322;22.816;2022-08-05T01:31:23;19.20;1.00
22923;DHT22;11627;51.322;22.816;2022-08-05T01:33:59;18.80;1.00
22923;DHT22;11627;51.322;22.816;2022-08-05T01:36:31;19.00;1.00
22923;DHT22;11627;51.322;22.816;2022-08-05T01:39:00;19.00;1.00
22923;DHT22;11627;51.322;22.816;2022-08-05T01:41:28;19.30;1.00
22923;DHT22;11627;51.322;22.816;2022-08-05T01:44:00;19.20;1.00
22923;DHT22;11627;51.322;22.816;2022-08-05T01:46:28;19.00;1.00
22923;DHT22;11627;51.322;22.816;2022-08-05T01:48:56;19.10;1.00
22923;DHT22;11627;51.322;22.816;2022-08-05T01:51:25;18.70;1.00
22923;DHT22;11627;51.322;22.816;2022-08-05T01:53:52;19.00;1.00
22923;DHT22;11627;51.322;22.816;2022-08-05T01:56:18;18.90;1.00
22923;DHT22;11627;51.322;22.816;2022-08-05T01:58:45;18.70;1.00
22923;DHT22;11627;51.322;22.816;2022-08-05T02:01:14;18.40;1.00
22923;DHT22;11627;51.322;22.816;2022-08-05T02:03:44;18.80;1.00
22923;DHT22;11627;51.322;22.816;2022-08-05T02:06:11;18.60;1.00
22923;DHT22;11627;51.322;22.816;2022-08-05T02:08:39;18.50;1.00
22923;DHT22;11627;51.322;22.816;2022-08-05T02:11:08;18.70;1.00
22923;DHT22;11627;51.322;22.816;2022-08-05T02:13:52;18.50;1.00
22923;DHT22;11627;51.322;22.816;2022-08-05T02:16:24;18.60;1.00
22923;DHT22;11627;51.322;22.816;2022-08-05T02:18:57;18.60;1.00
22923;DHT22;11627;51.322;22.816;2022-08-05T02:21:29;18.60;1.00
22923;DHT22;11627;51.322;22.816;2022-08-05T02:24:03;18.60;1.00
22923;DHT22;11627;51.322;22.816;2022-08-05T02:26:46;18.60;1.00
22923;DHT22;11627;51.322;22.816;2022-08-05T02:29:16;18.60;1.00
22923;DHT22;11627;51.322;22.816;2022-08-05T02:31:46;18.60;1.00
22923;DHT22;11627;51.322;22.816;2022-08-05T02:34:14;18.40;1.00
22923;DHT22;11627;51.322;22.816;2022-08-05T02:36:48;18.70;1.00
22923;DHT22;11627;51.322;22.816;2022-08-05T02:39:17;18.20;1.00
22923;DHT22;11627;51.322;22.816;2022-08-05T02:41:46;18.50;1.00
22923;DHT22;11627;51.322;22.816;2022-08-05T02:44:12;18.80;1.00
22923;DHT22;11627;51.322;22.816;2022-08-05T02:46:40;18.60;1.00
22923;DHT22;11627;51.322;22.816;2022-08-05T02:49:08;18.50;1.00
22923;DHT22;11627;51.322;22.816;2022-08-05T02:51:36;18.20;1.00
22923;DHT22;11627;51.322;22.816;2022-08-05T02:54:04;18.40;1.00
22923;DHT22;11627;51.322;22.816;2022-08-05T02:56:30;18.20;1.00
22923;DHT22;11627;51.322;22.816;2022-08-05T02:58:57;18.60;1.00
22923;DHT22;11627;51.322;22.816;2022-08-05T03:01:24;18.40;1.00
22923;DHT22;11627;51.322;22.816;2022-08-05T03:03:57;18.50;1.00
22923;DHT22;11627;51.322;22.816;2022-08-05T03:06:25;18.40;1.00
22923;DHT22;11627;51.322;22.816;2022-08-05T03:08:52;18.20;1.00
22923;DHT22;11627;51.322;22.816;2022-08-05T03:11:20;18.70;1.00
22923;DHT22;11627;51.322;22.816;2022-08-05T03:13:47;18.50;1.00
22923;DHT22;11627;51.322;22.816;2022-08-05T03:16:14;18.40;1.00
22923;DHT22;11627;51.322;22.816;2022-08-05T03:21:06;18.30;1.00
22923;DHT22;11627;51.322;22.816;2022-08-05T03:23:33;18.50;1.00
22923;DHT22;11627;51.322;22.816;2022-08-05T03:26:00;18.20;1.00
22923;DHT22;11627;51.322;22.816;2022-08-05T03:28:28;18.50;1.00
22923;DHT22;11627;51.322;22.816;2022-08-05T03:30:55;18.40;1.00
22923;DHT22;11627;51.322;22.816;2022-08-05T03:33:22;18.40;1.00
22923;DHT22;11627;51.322;22.816;2022-08-05T03:35:48;18.20;1.00
22923;DHT22;11627;51.322;22.816;2022-08-05T03:38:16;18.30;1.00
22923;DHT22;11627;51.322;22.816;2022-08-05T03:40:43;18.30;1.00
22923;DHT22;11627;51.322;22.816;2022-08-05T03:43:09;18.20;1.00
22923;DHT22;11627;51.322;22.816;2022-08-05T03:45:35;18.70;1.00
22923;DHT22;11627;51.322;22.816;2022-08-05T03:48:01;18.70;1.00
22923;DHT22;11627;51.322;22.816;2022-08-05T03:50:34;18.70;1.00
22923;DHT22;11627;51.322;22.816;2022-08-05T03:53:14;18.50;1.00
22923;DHT22;11627;51.322;22.816;2022-08-05T03:55:52;18.80;1.00
22923;DHT22;11627;51.322;22.816;2022-08-05T03:58:25;18.70;1.00
22923;DHT22;11627;51.322;22.816;2022-08-05T04:00:54;18.40;1.00
22923;DHT22;11627;51.322;22.816;2022-08-05T04:03:21;19.10;1.00
22923;DHT22;11627;51.322;22.816;2022-08-05T04:05:47;19.10;1.00
22923;DHT22;11627;51.322;22.816;2022-08-05T04:10:42;18.60;1.00
22923;DHT22;11627;51.322;22.816;2022-08-05T04:15:35;19.20;1.00
22923;DHT22;11627;51.322;22.816;2022-08-05T04:18:04;19.30;1.00
22923;DHT22;11627;51.322;22.816;2022-08-05T04:20:30;19.20;1.00
22923;DHT22;11627;51.322;22.816;2022-08-05T04:22:56;19.10;1.00
22923;DHT22;11627;51.322;22.816;2022-08-05T04:25:22;19.50;1.00
22923;DHT22;11627;51.322;22.816;2022-08-05T04:27:48;19.60;1.00
22923;DHT22;11627;51.322;22.816;2022-08-05T04:30:14;19.80;1.00
22923;DHT22;11627;51.322;22.816;2022-08-05T04:32:39;19.50;1.00
22923;DHT22;11627;51.322;22.816;2022-08-05T04:35:06;19.70;1.00
22923;DHT22;11627;51.322;22.816;2022-08-05T04:37:32;19.80;1.00
22923;DHT22;11627;51.322;22.816;2022-08-05T04:42:24;19.90;1.00
22923;DHT22;11627;51.322;22.816;2022-08-05T04:44:50;20.10;1.00
22923;DHT22;11627;51.322;22.816;2022-08-05T04:47:15;20.20;1.00
22923;DHT22;11627;51.322;22.816;2022-08-05T04:49:41;20.10;1.00
22923;DHT22;11627;51.322;22.816;2022-08-05T04:52:06;20.40;1.00
22923;DHT22;11627;51.322;22.816;2022-08-05T04:54:32;20.20;1.00
22923;DHT22;11627;51.322;22.816;2022-08-05T04:56:58;20.80;1.00
22923;DHT22;11627;51.322;22.816;2022-08-05T04:59:23;20.70;1.00
22923;DHT22;11627;51.322;22.816;2022-08-05T05:01:50;20.40;1.00
22923;DHT22;11627;51.322;22.816;2022-08-05T05:06:42;20.70;1.00
22923;DHT22;11627;51.322;22.816;2022-08-05T05:09:10;20.80;1.00
22923;DHT22;11627;51.322;22.816;2022-08-05T05:11:36;20.90;1.00
22923;DHT22;11627;51.322;22.816;2022-08-05T05:14:02;20.70;1.00
22923;DHT22;11627;51.322;22.816;2022-08-05T05:16:28;20.80;1.00
22923;DHT22;11627;51.322;22.816;2022-08-05T05:18:54;21.00;1.00
22923;DHT22;11627;51.322;22.816;2022-08-05T05:21:20;21.20;1.00
22923;DHT22;11627;51.322;22.816;2022-08-05T05:23:45;21.30;1.00
22923;DHT22;11627;51.322;22.816;2022-08-05T05:26:11;21.20;1.00
22923;DHT22;11627;51.322;22.816;2022-08-05T05:28:38;21.80;1.00
22923;DHT22;11627;51.322;22.816;2022-08-05T05:31:04;21.40;1.00
22923;DHT22;11627;51.322;22.816;2022-08-05T05:33:30;21.40;1.00
22923;DHT22;11627;51.322;22.816;2022-08-05T05:35:59;21.40;1.00
22923;DHT22;11627;51.322;22.816;2022-08-05T05:38:26;21.60;1.00
22923;DHT22;11627;51.322;22.816;2022-08-05T05:40:51;21.60;1.00
22923;DHT22;11627;51.322;22.816;2022-08-05T05:43:18;21.70;1.00
22923;DHT22;11627;51.322;22.816;2022-08-05T05:45:44;22.00;1.00
22923;DHT22;11627;51.322;22.816;2022-08-05T05:48:09;21.80;1.00
22923;DHT22;11627;51.322;22.816;2022-08-05T05:50:35;21.80;1.00
22923;DHT22;11627;51.322;22.816;2022-08-05T05:53:01;21.90;1.00
22923;DHT22;11627;51.322;22.816;2022-08-05T05:55:27;22.00;1.00
22923;DHT22;11627;51.322;22.816;2022-08-05T05:57:52;22.10;1.00
22923;DHT22;11627;51.322;22.816;2022-08-05T06:00:20;22.20;1.00
22923;DHT22;11627;51.322;22.816;2022-08-05T06:02:47;23.70;1.00
22923;DHT22;11627;51.322;22.816;2022-08-05T06:05:14;22.30;1.00
22923;DHT22;11627;51.322;22.816;2022-08-05T06:07:40;24.10;1.00
22923;DHT22;11627;51.322;22.816;2022-08-05T06:10:08;22.40;1.00
22923;DHT22;11627;51.322;22.816;2022-08-05T06:12:35;22.50;1.00
22923;DHT22;11627;51.322;22.816;2022-08-05T06:15:03;22.50;1.00
22923;DHT22;11627;51.322;22.816;2022-08-05T06:17:30;22.60;1.00
22923;DHT22;11627;51.322;22.816;2022-08-05T06:19:55;22.60;1.00
22923;DHT22;11627;51.322;22.816;2022-08-05T06:22:23;22.80;1.00
22923;DHT22;11627;51.322;22.816;2022-08-05T06:24:53;24.40;1.00
22923;DHT22;11627;51.322;22.816;2022-08-05T06:27:20;22.90;1.00
22923;DHT22;11627;51.322;22.816;2022-08-05T06:29:46;22.90;99.90
22923;DHT22;11627;51.322;22.816;2022-08-05T06:32:12;22.80;99.90
22923;DHT22;11627;51.322;22.816;2022-08-05T06:34:38;23.10;99.90
22923;DHT22;11627;51.322;22.816;2022-08-05T06:37:06;23.20;99.90
22923;DHT22;11627;51.322;22.816;2022-08-05T06:39:32;23.00;99.90
22923;DHT22;11627;51.322;22.816;2022-08-05T06:41:58;24.50;99.90
22923;DHT22;11627;51.322;22.816;2022-08-05T06:46:53;23.60;99.90
22923;DHT22;11627;51.322;22.816;2022-08-05T06:51:45;23.70;99.90
22923;DHT22;11627;51.322;22.816;2022-08-05T06:54:11;23.40;99.90
22923;DHT22;11627;51.322;22.816;2022-08-05T06:56:37;23.40;99.90
22923;DHT22;11627;51.322;22.816;2022-08-05T06:59:03;23.60;99.90
22923;DHT22;11627;51.322;22.816;2022-08-05T07:01:30;23.90;99.90
22923;DHT22;11627;51.322;22.816;2022-08-05T07:06:22;23.70;99.90
22923;DHT22;11627;51.322;22.816;2022-08-05T07:08:48;24.00;99.90
22923;DHT22;11627;51.322;22.816;2022-08-05T07:11:14;23.90;99.90
22923;DHT22;11627;51.322;22.816;2022-08-05T07:13:40;23.90;99.90
22923;DHT22;11627;51.322;22.816;2022-08-05T07:16:25;24.10;99.90
22923;DHT22;11627;51.322;22.816;2022-08-05T07:19:09;24.40;99.90
22923;DHT22;11627;51.322;22.816;2022-08-05T07:21:35;23.80;99.90
22923;DHT22;11627;51.322;22.816;2022-08-05T07:24:01;24.30;99.90
22923;DHT22;11627;51.322;22.816;2022-08-05T07:26:26;24.00;99.90
22923;DHT22;11627;51.322;22.816;2022-08-05T07:28:52;24.30;99.90
22923;DHT22;11627;51.322;22.816;2022-08-05T07:31:18;24.40;99.90
22923;DHT22;11627;51.322;22.816;2022-08-05T07:33:43;25.90;99.90
22923;DHT22;11627;51.322;22.816;2022-08-05T07:36:09;24.50;99.90
22923;DHT22;11627;51.322;22.816;2022-08-05T07:38:36;24.70;99.90
22923;DHT22;11627;51.322;22.816;2022-08-05T07:41:06;24.80;99.90
22923;DHT22;11627;51.322;22.816;2022-08-05T07:43:33;24.60;99.90
22923;DHT22;11627;51.322;22.816;2022-08-05T07:46:00;25.10;99.90
22923;DHT22;11627;51.322;22.816;2022-08-05T07:48:26;25.10;99.90
22923;DHT22;11627;51.322;22.816;2022-08-05T07:50:52;24.70;99.90
22923;DHT22;11627;51.322;22.816;2022-08-05T07:53:18;25.00;99.90
22923;DHT22;11627;51.322;22.816;2022-08-05T07:55:44;25.00;96.30
22923;DHT22;11627;51.322;22.816;2022-08-05T07:58:11;24.70;95.00
22923;DHT22;11627;51.322;22.816;2022-08-05T08:00:36;25.00;1.00
22923;DHT22;11627;51.322;22.816;2022-08-05T08:03:02;24.80;1.00
22923;DHT22;11627;51.322;22.816;2022-08-05T08:05:28;25.20;1.00
22923;DHT22;11627;51.322;22.816;2022-08-05T08:07:54;25.20;99.90
22923;DHT22;11627;51.322;22.816;2022-08-05T08:10:20;25.50;99.90
22923;DHT22;11627;51.322;22.816;2022-08-05T08:12:47;25.40;99.90
22923;DHT22;11627;51.322;22.816;2022-08-05T08:15:14;25.40;99.90
22923;DHT22;11627;51.322;22.816;2022-08-05T08:20:06;25.90;80.00
22923;DHT22;11627;51.322;22.816;2022-08-05T08:22:32;25.80;1.00
22923;DHT22;11627;51.322;22.816;2022-08-05T08:29:50;25.60;99.90
22923;DHT22;11627;51.322;22.816;2022-08-05T08:32:16;25.70;99.90
22923;DHT22;11627;51.322;22.816;2022-08-05T08:34:42;25.80;99.90
22923;DHT22;11627;51.322;22.816;2022-08-05T08:37:07;25.80;99.90
22923;DHT22;11627;51.322;22.816;2022-08-05T08:39:33;25.90;99.90
22923;DHT22;11627;51.322;22.816;2022-08-05T08:42:01;25.80;99.90
22923;DHT22;11627;51.322;22.816;2022-08-05T08:44:32;25.90;41.10
22923;DHT22;11627;51.322;22.816;2022-08-05T08:46:57;25.90;1.00
22923;DHT22;11627;51.322;22.816;2022-08-05T08:49:25;26.10;1.00
22923;DHT22;11627;51.322;22.816;2022-08-05T08:52:11;26.50;1.00
22923;DHT22;11627;51.322;22.816;2022-08-05T08:54:39;26.10;99.90
22923;DHT22;11627;51.322;22.816;2022-08-05T08:57:05;26.20;99.90
22923;DHT22;11627;51.322;22.816;2022-08-05T08:59:32;27.20;99.90
22923;DHT22;11627;51.322;22.816;2022-08-05T09:02:00;27.40;99.90
22923;DHT22;11627;51.322;22.816;2022-08-05T09:04:32;26.30;99.90
22923;DHT22;11627;51.322;22.816;2022-08-05T09:07:00;26.40;92.10
22923;DHT22;11627;51.322;22.816;2022-08-05T09:09:26;26.50;20.90
22923;DHT22;11627;51.322;22.816;2022-08-05T09:11:52;26.50;1.00
22923;DHT22;11627;51.322;22.816;2022-08-05T09:14:18;26.40;1.00
22923;DHT22;11627;51.322;22.816;2022-08-05T09:16:44;26.40;1.00
22923;DHT22;11627;51.322;22.816;2022-08-05T09:19:10;26.40;1.00
22923;DHT22;11627;51.322;22.816;2022-08-05T09:21:41;26.50;1.00
22923;DHT22;11627;51.322;22.816;2022-08-05T09:24:08;26.50;1.00
22923;DHT22;11627;51.322;22.816;2022-08-05T09:26:35;26.50;99.90
22923;DHT22;11627;51.322;22.816;2022-08-05T09:29:06;25.90;99.90
22923;DHT22;11627;51.322;22.816;2022-08-05T09:31:33;26.60;99.90
22923;DHT22;11627;51.322;22.816;2022-08-05T09:39:11;26.80;99.90
22923;DHT22;11627;51.322;22.816;2022-08-05T09:41:58;26.90;30.60
22923;DHT22;11627;51.322;22.816;2022-08-05T09:44:39;26.90;99.90
22923;DHT22;11627;51.322;22.816;2022-08-05T09:49:51;27.00;23.80
22923;DHT22;11627;51.322;22.816;2022-08-05T09:52:22;27.10;99.90
22923;DHT22;11627;51.322;22.816;2022-08-05T09:55:03;27.10;1.00
22923;DHT22;11627;51.322;22.816;2022-08-05T09:57:39;27.20;99.90
22923;DHT22;11627;51.322;22.816;2022-08-05T10:00:16;27.60;99.90
22923;DHT22;11627;51.322;22.816;2022-08-05T10:02:46;27.40;99.90
22923;DHT22;11627;51.322;22.816;2022-08-05T10:05:18;27.60;99.90
22923;DHT22;11627;51.322;22.816;2022-08-05T10:07:52;28.00;60.70
22923;DHT22;11627;51.322;22.816;2022-08-05T10:13:09;27.70;88.00
22923;DHT22;11627;51.322;22.816;2022-08-05T10:15:38;27.90;1.00
22923;DHT22;11627;51.322;22.816;2022-08-05T10:18:15;27.90;99.90
22923;DHT22;11627;51.322;22.816;2022-08-05T10:20:49;28.00;1.00
22923;DHT22;11627;51.322;22.816;2022-08-05T10:23:20;28.10;1.00
22923;DHT22;11627;51.322;22.816;2022-08-05T10:25:51;28.20;1.00
22923;DHT22;11627;51.322;22.816;2022-08-05T10:28:18;28.00;99.90
22923;DHT22;11627;51.322;22.816;2022-08-05T10:30:50;27.90;10.90
22923;DHT22;11627;51.322;22.816;2022-08-05T10:33:19;27.90;12.40
22923;DHT22;11627;51.322;22.816;2022-08-05T10:35:51;28.50;1.00
22923;DHT22;11627;51.322;22.816;2022-08-05T10:38:19;28.00;99.90
22923;DHT22;11627;51.322;22.816;2022-08-05T10:43:34;28.30;99.90
22923;DHT22;11627;51.322;22.816;2022-08-05T10:46:09;27.90;99.90
22923;DHT22;11627;51.322;22.816;2022-08-05T10:48:43;27.70;99.90
22923;DHT22;11627;51.322;22.816;2022-08-05T10:51:20;27.70;99.90
22923;DHT22;11627;51.322;22.816;2022-08-05T10:56:17;27.80;99.90
22923;DHT22;11627;51.322;22.816;2022-08-05T10:59:02;28.00;99.90
22923;DHT22;11627;51.322;22.816;2022-08-05T11:01:35;27.90;99.90
22923;DHT22;11627;51.322;22.816;2022-08-05T11:04:11;28.00;99.90
22923;DHT22;11627;51.322;22.816;2022-08-05T11:09:42;28.10;99.90
22923;DHT22;11627;51.322;22.816;2022-08-05T11:12:42;29.60;99.90
22923;DHT22;11627;51.322;22.816;2022-08-05T11:15:33;28.20;99.90
22923;DHT22;11627;51.322;22.816;2022-08-05T11:20:41;28.30;99.90
22923;DHT22;11627;51.322;22.816;2022-08-05T11:28:44;28.40;1.00
22923;DHT22;11627;51.322;22.816;2022-08-05T11:31:18;28.50;72.50
22923;DHT22;11627;51.322;22.816;2022-08-05T11:36:20;28.70;1.00
22923;DHT22;11627;51.322;22.816;2022-08-05T11:39:08;28.60;1.00
22923;DHT22;11627;51.322;22.816;2022-08-05T11:41:34;28.60;99.90
22923;DHT22;11627;51.322;22.816;2022-08-05T11:44:05;28.70;99.90
22923;DHT22;11627;51.322;22.816;2022-08-05T11:46:40;28.70;1.00
22923;DHT22;11627;51.322;22.816;2022-08-05T11:49:19;28.50;99.90
22923;DHT22;11627;51.322;22.816;2022-08-05T11:51:48;29.00;99.90
22923;DHT22;11627;51.322;22.816;2022-08-05T11:54:23;28.70;99.90
22923;DHT22;11627;51.322;22.816;2022-08-05T11:56:53;28.80;99.90
22923;DHT22;11627;51.322;22.816;2022-08-05T11:59:26;28.80;99.90
22923;DHT22;11627;51.322;22.816;2022-08-05T12:02:01;29.40;99.90
22923;DHT22;11627;51.322;22.816;2022-08-05T12:04:41;28.90;99.90
22923;DHT22;11627;51.322;22.816;2022-08-05T12:07:11;28.80;99.90
22923;DHT22;11627;51.322;22.816;2022-08-05T12:09:42;28.70;99.90
22923;DHT22;11627;51.322;22.816;2022-08-05T12:12:13;28.70;99.90
22923;DHT22;11627;51.322;22.816;2022-08-05T12:14:45;29.10;99.90
22923;DHT22;11627;51.322;22.816;2022-08-05T12:17:13;28.60;99.90
22923;DHT22;11627;51.322;22.816;2022-08-05T12:19:49;28.60;99.90
22923;DHT22;11627;51.322;22.816;2022-08-05T12:22:18;29.00;99.90
22923;DHT22;11627;51.322;22.816;2022-08-05T12:24:48;28.50;99.90
22923;DHT22;11627;51.322;22.816;2022-08-05T12:27:27;28.80;99.90
22923;DHT22;11627;51.322;22.816;2022-08-05T12:30:04;28.70;99.90
22923;DHT22;11627;51.322;22.816;2022-08-05T12:32:34;28.90;99.90
22923;DHT22;11627;51.322;22.816;2022-08-05T12:35:10;29.40;92.10
22923;DHT22;11627;51.322;22.816;2022-08-05T12:37:36;29.00;99.90
22923;DHT22;11627;51.322;22.816;2022-08-05T12:40:02;29.10;99.90
22923;DHT22;11627;51.322;22.816;2022-08-05T12:42:34;29.10;89.30
22923;DHT22;11627;51.322;22.816;2022-08-05T12:45:03;29.10;99.90
22923;DHT22;11627;51.322;22.816;2022-08-05T12:47:32;29.20;99.90
22923;DHT22;11627;51.322;22.816;2022-08-05T12:49:59;29.60;99.90
22923;DHT22;11627;51.322;22.816;2022-08-05T12:52:27;29.60;92.50
22923;DHT22;11627;51.322;22.816;2022-08-05T12:54:52;29.60;82.10
22923;DHT22;11627;51.322;22.816;2022-08-05T12:57:18;29.20;90.10
22923;DHT22;11627;51.322;22.816;2022-08-05T12:59:54;29.30;59.30
22923;DHT22;11627;51.322;22.816;2022-08-05T13:02:22;29.20;9.90
22923;DHT22;11627;51.322;22.816;2022-08-05T13:04:50;29.40;39.00
22923;DHT22;11627;51.322;22.816;2022-08-05T13:07:22;29.30;1.00
22923;DHT22;11627;51.322;22.816;2022-08-05T13:09:53;29.50;1.00
22923;DHT22;11627;51.322;22.816;2022-08-05T13:12:22;29.50;1.00
22923;DHT22;11627;51.322;22.816;2022-08-05T13:14:57;29.60;1.00
22923;DHT22;11627;51.322;22.816;2022-08-05T13:17:26;29.70;1.00
22923;DHT22;11627;51.322;22.816;2022-08-05T13:20:07;29.70;1.00
22923;DHT22;11627;51.322;22.816;2022-08-05T13:22:40;29.70;99.90
22923;DHT22;11627;51.322;22.816;2022-08-05T13:25:12;29.40;99.90
22923;DHT22;11627;51.322;22.816;2022-08-05T13:30:11;29.50;1.00
22923;DHT22;11627;51.322;22.816;2022-08-05T13:32:38;29.80;1.00
22923;DHT22;11627;51.322;22.816;2022-08-05T13:35:05;31.60;99.90
22923;DHT22;11627;51.322;22.816;2022-08-05T13:37:31;29.70;1.00
22923;DHT22;11627;51.322;22.816;2022-08-05T13:42:24;29.70;99.90
22923;DHT22;11627;51.322;22.816;2022-08-05T13:44:51;29.80;99.90
22923;DHT22;11627;51.322;22.816;2022-08-05T13:47:18;31.70;99.90
22923;DHT22;11627;51.322;22.816;2022-08-05T13:52:12;30.00;99.90
22923;DHT22;11627;51.322;22.816;2022-08-05T13:54:39;30.00;99.90
22923;DHT22;11627;51.322;22.816;2022-08-05T13:57:06;30.50;99.90
22923;DHT22;11627;51.322;22.816;2022-08-05T13:59:32;30.50;99.90
22923;DHT22;11627;51.322;22.816;2022-08-05T14:01:59;30.30;99.90
22923;DHT22;11627;51.322;22.816;2022-08-05T14:04:29;30.30;99.90
22923;DHT22;11627;51.322;22.816;2022-08-05T14:07:14;30.30;99.90
22923;DHT22;11627;51.322;22.816;2022-08-05T14:09:40;30.30;99.90
22923;DHT22;11627;51.322;22.816;2022-08-05T14:12:06;30.30;99.90
22923;DHT22;11627;51.322;22.816;2022-08-05T14:16:58;30.50;99.90
22923;DHT22;11627;51.322;22.816;2022-08-05T14:19:24;30.50;99.90
22923;DHT22;11627;51.322;22.816;2022-08-05T14:21:49;30.40;99.90
22923;DHT22;11627;51.322;22.816;2022-08-05T14:24:15;30.90;99.90
22923;DHT22;11627;51.322;22.816;2022-08-05T14:29:07;30.50;99.90
22923;DHT22;11627;51.322;22.816;2022-08-05T14:31:33;30.50;99.90
22923;DHT22;11627;51.322;22.816;2022-08-05T14:33:58;30.60;99.90
22923;DHT22;11627;51.322;22.816;2022-08-05T14:38:50;30.50;99.90
22923;DHT22;11627;51.322;22.816;2022-08-05T14:41:16;30.40;99.90
22923;DHT22;11627;51.322;22.816;2022-08-05T14:43:42;30.50;99.90
22923;DHT22;11627;51.322;22.816;2022-08-05T14:46:08;30.20;99.90
22923;DHT22;11627;51.322;22.816;2022-08-05T14:48:34;30.50;99.90
22923;DHT22;11627;51.322;22.816;2022-08-05T14:50:59;30.70;99.90
22923;DHT22;11627;51.322;22.816;2022-08-05T14:55:51;31.00;99.90
22923;DHT22;11627;51.322;22.816;2022-08-05T14:58:17;31.20;99.90
22923;DHT22;11627;51.322;22.816;2022-08-05T15:00:42;31.40;99.90
22923;DHT22;11627;51.322;22.816;2022-08-05T15:03:08;31.60;99.90
22923;DHT22;11627;51.322;22.816;2022-08-05T15:05:34;32.10;99.90
22923;DHT22;11627;51.322;22.816;2022-08-05T15:08:02;32.50;99.90
22923;DHT22;11627;51.322;22.816;2022-08-05T15:10:35;34.20;92.20
22923;DHT22;11627;51.322;22.816;2022-08-05T15:13:01;34.20;5.10
22923;DHT22;11627;51.322;22.816;2022-08-05T15:15:30;35.80;1.00
22923;DHT22;11627;51.322;22.816;2022-08-05T15:17:56;35.60;1.00
22923;DHT22;11627;51.322;22.816;2022-08-05T15:20:22;35.50;1.00
22923;DHT22;11627;51.322;22.816;2022-08-05T15:22:49;35.90;1.00
22923;DHT22;11627;51.322;22.816;2022-08-05T15:25:15;38.00;1.00
22923;DHT22;11627;51.322;22.816;2022-08-05T15:27:41;38.00;99.90
22923;DHT22;11627;51.322;22.816;2022-08-05T15:30:07;39.10;99.90
22923;DHT22;11627;51.322;22.816;2022-08-05T15:32:35;39.70;99.90
22923;DHT22;11627;51.322;22.816;2022-08-05T15:35:02;40.40;99.90
22923;DHT22;11627;51.322;22.816;2022-08-05T15:37:28;40.80;99.90
22923;DHT22;11627;51.322;22.816;2022-08-05T15:39:54;41.40;99.90
22923;DHT22;11627;51.322;22.816;2022-08-05T15:44:49;41.60;99.90
22923;DHT22;11627;51.322;22.816;2022-08-05T15:47:14;41.70;99.90
22923;DHT22;11627;51.322;22.816;2022-08-05T15:49:40;41.00;99.90
22923;DHT22;11627;51.322;22.816;2022-08-05T15:52:06;40.80;99.90
22923;DHT22;11627;51.322;22.816;2022-08-05T15:54:32;41.30;99.90
22923;DHT22;11627;51.322;22.816;2022-08-05T15:56:58;41.40;99.90
22923;DHT22;11627;51.322;22.816;2022-08-05T15:59:24;40.80;99.90
22923;DHT22;11627;51.322;22.816;2022-08-05T16:01:50;39.90;99.90
22923;DHT22;11627;51.322;22.816;2022-08-05T16:04:16;38.40;99.90
22923;DHT22;11627;51.322;22.816;2022-08-05T16:06:41;37.70;99.90
22923;DHT22;11627;51.322;22.816;2022-08-05T16:11:35;38.80;99.90
22923;DHT22;11627;51.322;22.816;2022-08-05T16:14:01;39.40;99.90
22923;DHT22;11627;51.322;22.816;2022-08-05T16:16:27;39.40;99.90
22923;DHT22;11627;51.322;22.816;2022-08-05T16:18:53;39.40;99.90
22923;DHT22;11627;51.322;22.816;2022-08-05T16:21:19;41.30;99.90
22923;DHT22;11627;51.322;22.816;2022-08-05T16:23:45;39.50;99.90
22923;DHT22;11627;51.322;22.816;2022-08-05T16:26:11;39.40;99.90
22923;DHT22;11627;51.322;22.816;2022-08-05T16:28:38;39.30;99.90
22923;DHT22;11627;51.322;22.816;2022-08-05T16:31:05;38.40;99.90
22923;DHT22;11627;51.322;22.816;2022-08-05T16:33:31;37.50;99.90
22923;DHT22;11627;51.322;22.816;2022-08-05T16:35:58;36.70;99.90
22923;DHT22;11627;51.322;22.816;2022-08-05T16:38:25;35.90;99.90
22923;DHT22;11627;51.322;22.816;2022-08-05T16:40:52;35.50;99.90
22923;DHT22;11627;51.322;22.816;2022-08-05T16:43:18;35.80;99.90
22923;DHT22;11627;51.322;22.816;2022-08-05T16:45:44;35.70;99.90
22923;DHT22;11627;51.322;22.816;2022-08-05T16:48:09;35.70;99.90
22923;DHT22;11627;51.322;22.816;2022-08-05T16:50:35;35.70;99.90
22923;DHT22;11627;51.322;22.816;2022-08-05T16:55:26;35.50;99.90
22923;DHT22;11627;51.322;22.816;2022-08-05T16:57:52;35.30;99.90
22923;DHT22;11627;51.322;22.816;2022-08-05T17:00:18;35.00;99.90
22923;DHT22;11627;51.322;22.816;2022-08-05T17:02:43;34.80;99.90